createdAt,value
2022-10-23T00:00:03.718Z,74.03
2022-10-23T00:02:57.105Z,74.07
2022-10-23T00:05:30.311Z,74.02
2022-10-23T00:08:04.148Z,74.00
2022-10-23T00:10:37.019Z,73.98
2022-10-23T00:13:08.471Z,73.93
2022-10-23T00:15:39.949Z,73.88
2022-10-23T00:18:11.488Z,74.07
2022-10-23T00:20:42.968Z,74.08
2022-10-23T00:23:14.407Z,74.02
2022-10-23T00:25:45.801Z,73.97
2022-10-23T00:28:17.255Z,73.91
2022-10-23T00:30:48.619Z,73.97
2022-10-23T00:33:20.075Z,73.99
2022-10-23T00:35:51.546Z,74.01
2022-10-23T00:38:23.103Z,74.18
2022-10-23T00:40:54.771Z,74.12
2022-10-23T00:43:31.028Z,74.09
2022-10-23T00:46:02.576Z,74.01
2022-10-23T00:48:33.975Z,74.06
2022-10-23T00:51:05.568Z,73.92
2022-10-23T00:53:37.162Z,73.89
2022-10-23T00:56:09.570Z,73.80
2022-10-23T00:58:41.024Z,73.83
2022-10-23T01:01:20.790Z,73.98
2022-10-23T01:03:53.357Z,74.08
2022-10-23T01:06:38.286Z,73.89
2022-10-23T01:09:18.926Z,74.03
2022-10-23T01:11:59.243Z,74.06
2022-10-23T01:14:39.461Z,74.12
2022-10-23T01:17:26.196Z,74.17
2022-10-23T01:20:32.840Z,74.13
2022-10-23T01:23:37.376Z,74.14
2022-10-23T01:26:19.683Z,74.05
2022-10-23T01:28:55.975Z,73.95
2022-10-23T01:31:38.474Z,74.02
2022-10-23T01:34:16.556Z,74.16
2022-10-23T01:36:53.493Z,74.29
2022-10-23T01:39:29.496Z,74.24
2022-10-23T01:42:09.672Z,74.18
2022-10-23T01:45:04.545Z,74.07
2022-10-23T01:47:40.860Z,74.00
2022-10-23T01:50:27.708Z,73.82
2022-10-23T01:53:05.771Z,74.01
2022-10-23T01:58:21.684Z,73.91
2022-10-23T02:00:53.989Z,73.91
2022-10-23T02:03:28.497Z,74.03
2022-10-23T02:06:01.575Z,74.13
2022-10-23T02:08:34.105Z,74.12
2022-10-23T02:11:11.450Z,74.15
2022-10-23T02:13:50.996Z,74.24
2022-10-23T02:16:37.761Z,74.08
2022-10-23T02:19:18.923Z,74.10
2022-10-23T02:22:28.947Z,74.04
2022-10-23T02:24:58.145Z,74.00
2022-10-23T02:27:36.757Z,74.15
2022-10-23T02:30:13.694Z,74.24
2022-10-23T02:33:12.149Z,74.01
2022-10-23T02:35:43.875Z,74.05
2022-10-23T02:38:34.365Z,74.13
2022-10-23T02:41:41.412Z,74.25
2022-10-23T02:44:38.356Z,74.32
2022-10-23T02:47:22.439Z,74.28
2022-10-23T02:49:57.556Z,74.27
2022-10-23T02:52:39.692Z,74.30
2022-10-23T02:55:19.090Z,74.32
2022-10-23T02:58:00.092Z,74.34
2022-10-23T03:00:33.647Z,74.36
2022-10-23T03:03:11.738Z,74.36
2022-10-23T03:05:44.965Z,74.36
2022-10-23T03:08:17.207Z,74.31
2022-10-23T03:11:11.608Z,74.28
2022-10-23T03:13:45.254Z,74.18
2022-10-23T03:16:33.951Z,73.98
2022-10-23T03:21:50.871Z,74.06
2022-10-23T03:24:22.528Z,74.13
2022-10-23T03:26:54.187Z,74.27
2022-10-23T03:29:25.627Z,74.25
2022-10-23T03:31:57.084Z,74.24
2022-10-23T03:34:28.661Z,74.28
2022-10-23T03:37:00.183Z,74.35
2022-10-23T03:39:55.162Z,74.33
2022-10-23T03:42:26.867Z,74.28
2022-10-23T03:45:01.162Z,74.30
2022-10-23T03:47:36.016Z,74.27
2022-10-23T03:50:31.159Z,74.31
2022-10-23T03:53:02.705Z,74.29
2022-10-23T03:55:58.456Z,74.22
2022-10-23T03:58:43.923Z,74.28
2022-10-23T04:01:15.479Z,74.27
2022-10-23T04:03:48.201Z,74.26
2022-10-23T04:06:19.717Z,74.31
2022-10-23T04:08:51.199Z,74.38
2022-10-23T04:11:22.593Z,74.27
2022-10-23T04:13:54.112Z,74.14
2022-10-23T04:16:26.043Z,74.33
2022-10-23T04:18:59.879Z,74.31
2022-10-23T04:21:32.887Z,74.20
2022-10-23T04:24:04.665Z,74.13
2022-10-23T04:26:38.978Z,74.00
2022-10-23T04:29:13.253Z,74.14
2022-10-23T04:31:44.655Z,74.17
2022-10-23T04:34:16.225Z,74.26
2022-10-23T04:36:50.611Z,74.32
2022-10-23T04:39:22.169Z,74.28
2022-10-23T04:42:14.178Z,74.24
2022-10-23T04:44:45.773Z,74.16
2022-10-23T04:47:17.170Z,73.99
2022-10-23T04:49:48.576Z,74.10
2022-10-23T04:52:20.334Z,74.15
2022-10-23T04:54:52.096Z,74.04
2022-10-23T04:57:26.315Z,74.15
2022-10-23T04:59:57.778Z,74.22
2022-10-23T05:02:29.233Z,74.09
2022-10-23T05:05:00.742Z,74.11
2022-10-23T05:07:32.296Z,74.28
2022-10-23T05:10:04.083Z,74.29
2022-10-23T05:12:36.061Z,74.34
2022-10-23T05:15:11.251Z,74.36
2022-10-23T05:17:45.576Z,74.45
2022-10-23T05:20:27.089Z,74.47
2022-10-23T05:23:01.553Z,74.57
2022-10-23T05:25:40.671Z,74.51
2022-10-23T05:28:33.099Z,74.55
2022-10-23T05:31:09.715Z,74.55
2022-10-23T05:33:41.348Z,74.60
2022-10-23T05:36:15.492Z,74.43
2022-10-23T05:38:49.224Z,74.43
2022-10-23T05:41:48.802Z,74.49
2022-10-23T05:44:20.668Z,74.51
2022-10-23T05:47:12.369Z,74.52
2022-10-23T05:49:43.840Z,74.67
2022-10-23T05:52:19.991Z,74.66
2022-10-23T05:54:53.425Z,74.69
2022-10-23T05:57:24.949Z,74.61
2022-10-23T05:59:56.488Z,74.71
2022-10-23T06:02:29.840Z,74.58
2022-10-23T06:05:22.476Z,74.51
2022-10-23T06:07:53.904Z,74.66
2022-10-23T06:10:28.924Z,74.65
2022-10-23T06:13:00.493Z,74.78
2022-10-23T06:15:32.084Z,74.75
2022-10-23T06:18:28.283Z,74.89
2022-10-23T06:21:00.991Z,74.92
2022-10-23T06:23:35.375Z,74.77
2022-10-23T06:26:09.183Z,74.78
2022-10-23T06:28:41.836Z,74.80
2022-10-23T06:31:15.551Z,74.74
2022-10-23T06:33:47.497Z,74.76
2022-10-23T06:36:19.032Z,74.85
2022-10-23T06:38:52.168Z,74.88
2022-10-23T06:41:24.507Z,74.97
2022-10-23T06:43:55.923Z,74.99
2022-10-23T06:46:29.888Z,74.91
2022-10-23T06:49:01.419Z,74.99
2022-10-23T06:51:32.855Z,75.14
2022-10-23T06:54:04.283Z,75.05
2022-10-23T06:56:35.719Z,74.96
2022-10-23T06:59:08.602Z,75.00
2022-10-23T07:01:40.261Z,75.11
2022-10-23T07:04:14.223Z,74.98
2022-10-23T07:06:45.680Z,74.97
2022-10-23T07:09:17.201Z,75.05
2022-10-23T07:11:48.747Z,75.14
2022-10-23T07:14:20.415Z,75.14
2022-10-23T07:16:52.177Z,75.18
2022-10-23T07:19:23.803Z,75.17
2022-10-23T07:21:55.444Z,75.33
2022-10-23T07:24:28.528Z,75.29
2022-10-23T07:27:00.404Z,75.09
2022-10-23T07:29:32.385Z,74.79
2022-10-23T07:32:04.792Z,74.89
2022-10-23T07:34:36.901Z,74.82
2022-10-23T07:37:08.698Z,74.85
2022-10-23T07:39:40.481Z,75.02
2022-10-23T07:42:12.855Z,74.99
2022-10-23T07:44:44.815Z,75.13
2022-10-23T07:47:16.471Z,74.73
2022-10-23T07:49:51.522Z,75.50
2022-10-23T07:52:23.185Z,75.29
2022-10-23T07:54:55.230Z,74.98
2022-10-23T07:57:26.983Z,73.74
2022-10-23T07:59:58.700Z,74.15
2022-10-23T08:02:30.477Z,73.53
2022-10-23T08:05:02.178Z,72.18
2022-10-23T08:07:33.877Z,70.89
2022-10-23T08:10:06.813Z,70.32
2022-10-23T08:12:39.972Z,69.61
2022-10-23T08:15:12.778Z,68.54
2022-10-23T08:17:44.644Z,67.68
2022-10-23T08:20:16.839Z,67.66
2022-10-23T08:22:48.716Z,67.17
2022-10-23T08:25:25.000Z,66.33
2022-10-23T08:27:57.691Z,66.10
2022-10-23T08:30:29.545Z,65.73
2022-10-23T08:33:01.175Z,66.10
2022-10-23T08:35:38.207Z,66.22
2022-10-23T08:38:11.309Z,65.96
2022-10-23T08:40:47.453Z,65.59
2022-10-23T08:43:29.608Z,65.51
2022-10-23T08:46:08.609Z,65.70
2022-10-23T08:48:49.507Z,65.54
2022-10-23T08:51:28.379Z,65.48
2022-10-23T08:54:07.480Z,65.35
2022-10-23T08:56:42.619Z,64.75
2022-10-23T08:59:23.123Z,64.65
2022-10-23T09:01:59.660Z,64.77
2022-10-23T09:04:31.879Z,64.82
2022-10-23T09:07:16.085Z,64.47
2022-10-23T09:10:04.359Z,64.75
2022-10-23T09:12:36.023Z,64.77
2022-10-23T09:15:31.801Z,65.21
2022-10-23T09:18:16.421Z,65.66
2022-10-23T09:20:52.390Z,65.00
2022-10-23T09:23:26.156Z,64.30
2022-10-23T09:25:58.930Z,63.97
2022-10-23T09:28:33.452Z,63.99
2022-10-23T09:31:11.838Z,63.92
2022-10-23T09:33:54.275Z,63.94
2022-10-23T09:36:30.047Z,64.05
2022-10-23T09:39:02.540Z,64.37
2022-10-23T09:41:38.469Z,64.41
2022-10-23T09:44:21.999Z,64.44
2022-10-23T09:46:56.818Z,64.39
2022-10-23T09:49:30.396Z,64.24
2022-10-23T09:52:04.798Z,64.38
2022-10-23T09:54:38.187Z,64.43
2022-10-23T09:57:29.996Z,64.41
2022-10-23T10:00:05.465Z,64.58
2022-10-23T10:02:38.936Z,64.62
2022-10-23T10:05:27.567Z,64.41
2022-10-23T10:08:06.002Z,64.76
2022-10-23T10:10:43.598Z,64.69
2022-10-23T10:13:42.697Z,64.85
2022-10-23T10:16:21.932Z,65.03
2022-10-23T10:19:03.507Z,64.83
2022-10-23T10:21:44.217Z,64.84
2022-10-23T10:24:21.529Z,64.91
2022-10-23T10:27:01.217Z,64.36
2022-10-23T10:29:47.937Z,64.80
2022-10-23T10:32:32.890Z,64.44
2022-10-23T10:35:20.631Z,63.23
2022-10-23T10:38:07.077Z,62.19
2022-10-23T10:40:43.382Z,60.79
2022-10-23T10:43:25.292Z,60.38
2022-10-23T10:46:02.581Z,59.54
2022-10-23T10:48:44.382Z,59.17
2022-10-23T10:51:23.377Z,58.99
2022-10-23T10:54:11.541Z,58.49
2022-10-23T10:56:46.583Z,57.68
2022-10-23T10:59:22.190Z,57.08
2022-10-23T11:01:59.874Z,56.76
2022-10-23T11:04:38.315Z,56.38
2022-10-23T11:07:15.668Z,55.87
2022-10-23T11:09:47.474Z,55.61
2022-10-23T11:12:22.850Z,55.20
2022-10-23T11:14:54.811Z,54.37
2022-10-23T11:17:32.387Z,53.94
2022-10-23T11:20:12.451Z,53.16
2022-10-23T11:22:53.912Z,52.46
2022-10-23T11:25:50.066Z,51.73
2022-10-23T11:28:38.019Z,51.41
2022-10-23T11:31:20.359Z,50.75
2022-10-23T11:34:33.470Z,50.78
2022-10-23T11:37:06.971Z,49.95
2022-10-23T11:39:40.677Z,49.94
2022-10-23T11:42:32.150Z,49.45
2022-10-23T11:45:03.986Z,49.08
2022-10-23T11:47:40.300Z,49.44
2022-10-23T11:50:31.133Z,49.10
2022-10-23T11:53:14.610Z,49.19
2022-10-23T11:56:02.658Z,48.08
2022-10-23T11:58:47.602Z,47.53
2022-10-23T12:01:44.178Z,47.48
2022-10-23T12:04:26.658Z,47.38
2022-10-23T12:07:01.405Z,48.11
2022-10-23T12:09:40.892Z,47.86
2022-10-23T12:12:29.407Z,47.76
2022-10-23T12:15:20.975Z,48.48
2022-10-23T12:17:55.321Z,48.17
2022-10-23T12:20:37.901Z,47.44
2022-10-23T12:23:43.293Z,46.30
2022-10-23T12:26:40.031Z,45.88
2022-10-23T12:29:18.031Z,45.14
2022-10-23T12:32:01.905Z,44.83
2022-10-23T12:34:37.445Z,44.69
2022-10-23T12:37:27.712Z,44.49
2022-10-23T12:40:02.070Z,44.29
2022-10-23T12:42:33.816Z,44.09
2022-10-23T12:45:23.887Z,44.02
2022-10-23T12:47:56.041Z,43.71
2022-10-23T12:50:30.207Z,43.92
2022-10-23T12:53:06.826Z,43.74
2022-10-23T12:55:52.672Z,43.61
2022-10-23T12:58:26.463Z,43.80
2022-10-23T13:01:00.189Z,43.96
2022-10-23T13:03:34.975Z,44.08
2022-10-23T13:06:12.380Z,44.26
2022-10-23T13:08:48.039Z,44.19
2022-10-23T13:11:23.066Z,44.52
2022-10-23T13:13:55.426Z,44.61
2022-10-23T13:16:28.293Z,44.72
2022-10-23T13:19:00.286Z,44.77
2022-10-23T13:21:33.697Z,45.05
2022-10-23T13:24:05.913Z,45.11
2022-10-23T13:26:45.099Z,45.14
2022-10-23T13:29:23.189Z,45.46
2022-10-23T13:31:55.243Z,45.59
2022-10-23T13:34:29.536Z,45.86
2022-10-23T13:37:04.933Z,45.98
2022-10-23T13:39:36.967Z,46.20
2022-10-23T13:42:16.328Z,46.36
2022-10-23T13:44:48.216Z,46.47
2022-10-23T13:47:20.450Z,46.62
2022-10-23T13:49:52.133Z,46.82
2022-10-23T13:52:26.696Z,47.03
2022-10-23T13:54:58.392Z,47.20
2022-10-23T13:57:30.129Z,47.40
2022-10-23T14:00:01.797Z,47.62
2022-10-23T14:02:34.295Z,47.71
2022-10-23T14:05:06.583Z,47.92
2022-10-23T14:07:38.411Z,48.07
2022-10-23T14:10:11.216Z,48.31
2022-10-23T14:12:44.981Z,48.42
2022-10-23T14:15:17.125Z,48.54
2022-10-23T14:17:48.927Z,48.68
2022-10-23T14:20:24.329Z,48.88
2022-10-23T14:22:58.076Z,49.08
2022-10-23T14:25:29.739Z,49.25
2022-10-23T14:28:01.497Z,49.38
2022-10-23T14:30:33.488Z,49.61
2022-10-23T14:33:05.509Z,49.83
2022-10-23T14:35:40.044Z,50.04
2022-10-23T14:38:11.732Z,50.24
2022-10-23T14:40:43.503Z,50.39
2022-10-23T14:43:15.229Z,50.57
2022-10-23T14:45:46.960Z,50.72
2022-10-23T14:48:18.660Z,51.15
2022-10-23T14:50:51.534Z,51.24
2022-10-23T14:53:23.214Z,51.48
2022-10-23T14:55:54.952Z,51.72
2022-10-23T14:58:26.890Z,51.82
2022-10-23T15:01:02.123Z,51.97
2022-10-23T15:03:34.219Z,52.18
2022-10-23T15:06:07.488Z,52.34
2022-10-23T15:08:40.194Z,52.56
2022-10-23T15:11:12.800Z,52.81
2022-10-23T15:13:44.048Z,53.03
2022-10-23T15:16:16.283Z,53.45
2022-10-23T15:18:47.991Z,53.67
2022-10-23T15:21:19.728Z,53.63
2022-10-23T15:23:53.278Z,53.88
2022-10-23T15:26:25.597Z,54.05
2022-10-23T15:28:59.311Z,54.22
2022-10-23T15:31:46.611Z,54.32
2022-10-23T15:34:20.432Z,54.68
2022-10-23T15:36:53.195Z,54.72
2022-10-23T15:39:28.246Z,54.88
2022-10-23T15:41:59.974Z,55.07
2022-10-23T15:44:34.152Z,55.23
2022-10-23T15:47:06.061Z,55.47
2022-10-23T15:49:38.129Z,55.56
2022-10-23T15:54:47.601Z,55.95
2022-10-23T15:57:19.336Z,56.14
2022-10-23T15:59:51.237Z,56.35
2022-10-23T16:02:23.532Z,56.40
2022-10-23T16:04:55.277Z,56.50
2022-10-23T16:07:27.168Z,56.70
2022-10-23T16:09:58.940Z,56.80
2022-10-23T16:12:30.639Z,56.95
2022-10-23T16:15:02.415Z,57.07
2022-10-23T16:17:34.079Z,57.23
2022-10-23T16:20:07.557Z,57.46
2022-10-23T16:22:42.671Z,57.52
2022-10-23T16:25:16.907Z,57.73
2022-10-23T16:27:49.177Z,57.73
2022-10-23T16:30:23.077Z,57.94
2022-10-23T16:32:55.463Z,58.12
2022-10-23T16:35:27.540Z,58.45
2022-10-23T16:37:59.328Z,58.46
2022-10-23T16:40:30.939Z,58.67
2022-10-23T16:43:02.676Z,58.72
2022-10-23T16:45:37.061Z,58.82
2022-10-23T16:48:09.820Z,59.06
2022-10-23T16:50:42.942Z,59.05
2022-10-23T16:53:14.579Z,59.18
2022-10-23T16:55:46.375Z,59.37
2022-10-23T16:58:18.041Z,59.42
2022-10-23T17:00:58.614Z,59.53
2022-10-23T17:03:30.810Z,59.82
2022-10-23T17:06:08.880Z,59.74
2022-10-23T17:08:43.903Z,59.95
2022-10-23T17:11:17.941Z,59.85
2022-10-23T17:13:55.167Z,60.01
2022-10-23T17:16:35.041Z,60.23
2022-10-23T17:19:20.914Z,60.27
2022-10-23T17:22:02.318Z,60.44
2022-10-23T17:24:34.150Z,60.51
2022-10-23T17:27:06.207Z,60.65
2022-10-23T17:29:38.003Z,60.79
2022-10-23T17:32:09.856Z,60.96
2022-10-23T17:34:41.443Z,60.92
2022-10-23T17:37:14.477Z,60.95
2022-10-23T17:39:46.044Z,61.07
2022-10-23T17:42:17.509Z,61.11
2022-10-23T17:44:48.922Z,61.13
2022-10-23T17:47:20.355Z,61.31
2022-10-23T17:49:51.742Z,61.39
2022-10-23T17:52:23.183Z,61.46
2022-10-23T17:54:55.365Z,61.50
2022-10-23T17:57:26.843Z,61.56
2022-10-23T17:59:58.358Z,61.74
2022-10-23T18:02:29.880Z,61.86
2022-10-23T18:05:02.130Z,61.81
2022-10-23T18:07:33.651Z,62.04
2022-10-23T18:10:05.590Z,62.02
2022-10-23T18:12:36.989Z,62.06
2022-10-23T18:15:10.712Z,62.11
2022-10-23T18:17:42.502Z,62.17
2022-10-23T18:20:15.698Z,62.19
2022-10-23T18:22:47.255Z,62.23
2022-10-23T18:25:18.774Z,62.34
2022-10-23T18:27:50.239Z,62.54
2022-10-23T18:30:21.838Z,62.54
2022-10-23T18:32:53.255Z,62.61
2022-10-23T18:35:24.718Z,62.78
2022-10-23T18:37:56.210Z,62.83
2022-10-23T18:40:28.087Z,62.99
2022-10-23T18:42:59.856Z,63.05
2022-10-23T18:45:32.096Z,62.87
2022-10-23T18:48:04.783Z,62.90
2022-10-23T18:50:40.040Z,63.01
2022-10-23T18:53:11.573Z,63.33
2022-10-23T18:55:50.322Z,63.33
2022-10-23T18:58:21.782Z,63.68
2022-10-23T19:00:53.238Z,63.37
2022-10-23T19:03:24.645Z,63.48
2022-10-23T19:05:56.027Z,63.37
2022-10-23T19:08:27.635Z,63.46
2022-10-23T19:11:00.406Z,63.68
2022-10-23T19:13:35.296Z,63.83
2022-10-23T19:16:13.916Z,63.97
2022-10-23T19:18:50.087Z,64.05
2022-10-23T19:21:31.000Z,63.99
2022-10-23T19:24:04.727Z,64.13
2022-10-23T19:26:35.607Z,64.19
2022-10-23T19:29:09.199Z,64.23
2022-10-23T19:31:45.156Z,64.21
2022-10-23T19:34:20.273Z,64.39
2022-10-23T19:36:53.537Z,64.27
2022-10-23T19:39:26.010Z,64.36
2022-10-23T19:41:58.563Z,64.46
2022-10-23T19:44:30.221Z,64.50
2022-10-23T19:47:02.955Z,64.64
2022-10-23T19:49:34.441Z,64.66
2022-10-23T19:52:06.395Z,64.59
2022-10-23T19:54:41.228Z,64.64
2022-10-23T19:57:12.911Z,64.74
2022-10-23T19:59:44.504Z,64.69
2022-10-23T20:02:16.131Z,64.72
2022-10-23T20:04:47.889Z,64.80
2022-10-23T20:07:19.435Z,64.63
2022-10-23T20:09:51.888Z,64.75
2022-10-23T20:12:23.463Z,64.81
2022-10-23T20:14:55.024Z,64.86
2022-10-23T20:17:27.918Z,65.04
2022-10-23T20:19:59.367Z,64.96
2022-10-23T20:22:30.840Z,65.08
2022-10-23T20:25:02.379Z,65.23
2022-10-23T20:27:33.933Z,65.27
2022-10-23T20:30:06.289Z,65.27
2022-10-23T20:32:37.760Z,65.36
2022-10-23T20:35:11.482Z,65.30
2022-10-23T20:37:41.586Z,65.28
2022-10-23T20:40:14.295Z,65.34
2022-10-23T20:42:45.718Z,65.28
2022-10-23T20:45:17.156Z,65.32
2022-10-23T20:47:48.972Z,65.36
2022-10-23T20:50:20.992Z,65.32
2022-10-23T20:52:52.830Z,65.31
2022-10-23T20:55:24.292Z,65.39
2022-10-23T20:57:55.931Z,65.49
2022-10-23T21:00:27.444Z,65.64
2022-10-23T21:03:01.558Z,65.66
2022-10-23T21:05:35.140Z,65.76
2022-10-23T21:08:06.864Z,65.84
2022-10-23T21:10:45.276Z,65.84
2022-10-23T21:13:16.673Z,65.75
2022-10-23T21:15:48.207Z,65.67
2022-10-23T21:18:27.367Z,65.72
2022-10-23T21:21:11.401Z,65.74
2022-10-23T21:23:42.914Z,65.78
2022-10-23T21:26:15.388Z,65.89
2022-10-23T21:28:56.137Z,65.87
2022-10-23T21:31:32.842Z,65.88
2022-10-23T21:34:06.720Z,65.81
2022-10-23T21:36:48.591Z,66.03
2022-10-23T21:39:29.835Z,66.31
2022-10-23T21:42:12.148Z,66.26
2022-10-23T21:44:43.738Z,66.12
2022-10-23T21:47:15.232Z,66.19
2022-10-23T21:49:47.056Z,66.27
2022-10-23T21:52:19.812Z,66.39
2022-10-23T21:54:55.607Z,66.39
2022-10-23T21:57:31.113Z,66.42
2022-10-23T22:00:05.283Z,66.45
2022-10-23T22:02:36.858Z,66.42
2022-10-23T22:05:08.899Z,66.48
2022-10-23T22:07:40.374Z,66.36
2022-10-23T22:10:12.751Z,66.52
2022-10-23T22:12:44.497Z,66.63
2022-10-23T22:15:15.955Z,66.68
2022-10-23T22:17:47.651Z,66.78
2022-10-23T22:20:19.304Z,66.87
2022-10-23T22:22:50.705Z,66.87
2022-10-23T22:25:22.371Z,66.80
2022-10-23T22:27:53.924Z,66.90
2022-10-23T22:30:27.380Z,66.98
2022-10-23T22:32:58.967Z,67.07
2022-10-23T22:35:30.830Z,66.98
2022-10-23T22:38:02.225Z,67.05
2022-10-23T22:40:37.335Z,67.09
2022-10-23T22:43:08.789Z,67.10
2022-10-23T22:45:40.158Z,67.06
2022-10-23T22:48:11.613Z,67.07
2022-10-23T22:50:43.021Z,67.10
2022-10-23T22:53:14.480Z,67.12
2022-10-23T22:55:46.039Z,67.29
2022-10-23T22:58:17.528Z,67.38
2022-10-23T23:00:49.390Z,67.33
2022-10-23T23:03:20.937Z,67.33
2022-10-23T23:05:52.587Z,67.36
2022-10-23T23:08:24.036Z,67.42
2022-10-23T23:10:59.268Z,67.40
2022-10-23T23:13:31.125Z,67.49
2022-10-23T23:16:02.788Z,67.22
2022-10-23T23:18:36.070Z,67.19
2022-10-23T23:21:07.888Z,67.25
2022-10-23T23:23:39.371Z,67.36
2022-10-23T23:26:11.542Z,67.55
2022-10-23T23:28:43.496Z,67.67
2022-10-23T23:31:18.353Z,67.71
2022-10-23T23:33:50.254Z,67.65
2022-10-23T23:36:25.227Z,67.79
2022-10-23T23:38:58.435Z,67.67
2022-10-23T23:41:30.814Z,67.67
2022-10-23T23:44:02.358Z,67.64
2022-10-23T23:46:33.988Z,67.66
2022-10-23T23:49:05.576Z,67.76
2022-10-23T23:51:37.317Z,67.82
2022-10-23T23:54:08.694Z,67.75
2022-10-23T23:56:40.240Z,67.71
2022-10-23T23:59:11.684Z,67.65
